createdAt,value
2022-11-19T00:01:57.342Z,1.60
2022-11-19T00:04:26.569Z,1.50
2022-11-19T00:06:54.358Z,1.67
2022-11-19T00:09:22.163Z,1.60
2022-11-19T00:12:07.081Z,1.70
2022-11-19T00:14:35.664Z,1.58
2022-11-19T00:17:03.311Z,1.67
2022-11-19T00:19:32.373Z,2.00
2022-11-19T00:22:00.069Z,2.25
2022-11-19T00:24:28.808Z,1.92
2022-11-19T00:26:56.908Z,2.63
2022-11-19T00:29:24.678Z,1.83
2022-11-19T00:31:52.396Z,1.90
2022-11-19T00:34:20.102Z,1.65
2022-11-19T00:36:49.136Z,1.90
2022-11-19T00:39:17.404Z,1.83
2022-11-19T00:41:45.424Z,2.15
2022-11-19T00:44:13.111Z,1.50
2022-11-19T00:46:40.860Z,1.85
2022-11-19T00:49:08.525Z,1.60
2022-11-19T00:51:36.647Z,1.95
2022-11-19T00:54:05.970Z,1.55
2022-11-19T00:56:33.659Z,1.70
2022-11-19T00:59:01.360Z,1.33
2022-11-19T01:01:29.134Z,1.40
2022-11-19T01:03:56.931Z,2.00
2022-11-19T01:06:26.488Z,1.35
2022-11-19T01:08:54.940Z,1.85
2022-11-19T01:11:26.471Z,1.23
2022-11-19T01:13:54.451Z,2.10
2022-11-19T01:16:24.014Z,2.40
2022-11-19T01:18:52.369Z,1.27
2022-11-19T01:21:21.724Z,1.67
2022-11-19T01:23:50.042Z,1.75
2022-11-19T01:26:18.738Z,2.05
2022-11-19T01:28:48.101Z,1.75
2022-11-19T01:31:17.642Z,1.65
2022-11-19T01:33:46.226Z,1.73
2022-11-19T01:36:17.097Z,1.67
2022-11-19T01:38:50.615Z,1.30
2022-11-19T01:41:18.484Z,1.13
2022-11-19T01:43:48.978Z,1.02
2022-11-19T01:46:18.905Z,1.33
2022-11-19T01:48:50.452Z,1.60
2022-11-19T01:51:22.658Z,1.13
2022-11-19T01:53:51.926Z,1.00
2022-11-19T01:56:22.142Z,1.42
2022-11-19T01:58:56.243Z,1.35
2022-11-19T02:01:24.190Z,1.00
2022-11-19T02:03:53.509Z,1.08
2022-11-19T02:06:21.666Z,0.98
2022-11-19T02:08:51.501Z,1.00
2022-11-19T02:11:39.207Z,1.33
2022-11-19T02:14:22.936Z,1.13
2022-11-19T02:17:02.251Z,1.10
2022-11-19T02:19:55.371Z,1.10
2022-11-19T02:22:45.563Z,1.38
2022-11-19T02:25:22.190Z,1.70
2022-11-19T02:28:18.677Z,1.60
2022-11-19T02:30:50.767Z,1.88
2022-11-19T02:33:27.390Z,1.35
2022-11-19T02:36:00.161Z,2.05
2022-11-19T02:38:33.176Z,1.75
2022-11-19T02:41:28.022Z,1.98
2022-11-19T02:44:21.898Z,2.38
2022-11-19T02:46:54.314Z,1.70
2022-11-19T02:49:26.739Z,1.95
2022-11-19T02:51:55.358Z,1.90
2022-11-19T02:54:23.070Z,2.03
2022-11-19T02:56:52.953Z,1.85
2022-11-19T02:59:43.625Z,2.20
2022-11-19T03:02:32.657Z,1.75
2022-11-19T03:05:00.963Z,2.30
2022-11-19T03:07:28.956Z,2.42
2022-11-19T03:09:59.053Z,2.20
2022-11-19T03:12:43.695Z,1.92
2022-11-19T03:15:43.980Z,2.08
2022-11-19T03:18:17.286Z,1.80
2022-11-19T03:20:49.995Z,1.75
2022-11-19T03:23:23.749Z,2.05
2022-11-19T03:25:55.565Z,1.67
2022-11-19T03:28:28.340Z,1.50
2022-11-19T03:30:59.725Z,1.50
2022-11-19T03:33:33.399Z,1.80
2022-11-19T03:36:07.212Z,1.88
2022-11-19T03:38:42.432Z,1.75
2022-11-19T03:41:12.585Z,1.30
2022-11-19T03:43:44.626Z,1.88
2022-11-19T03:48:49.317Z,1.60
2022-11-19T03:51:21.763Z,1.92
2022-11-19T03:53:50.166Z,1.40
2022-11-19T03:56:22.537Z,1.30
2022-11-19T03:58:50.408Z,1.60
2022-11-19T04:01:18.117Z,1.50
2022-11-19T04:04:07.341Z,1.40
2022-11-19T04:06:34.973Z,1.83
2022-11-19T04:09:02.647Z,1.30
2022-11-19T04:11:30.277Z,1.60
2022-11-19T04:13:58.278Z,1.40
2022-11-19T04:16:25.909Z,1.38
2022-11-19T04:18:54.924Z,1.50
2022-11-19T04:21:22.608Z,1.63
2022-11-19T04:23:50.333Z,1.60
2022-11-19T04:26:18.005Z,1.83
2022-11-19T04:28:45.618Z,1.98
2022-11-19T04:31:17.670Z,1.95
2022-11-19T04:33:45.990Z,2.67
2022-11-19T04:36:15.097Z,1.90
2022-11-19T04:38:42.804Z,2.30
2022-11-19T04:41:11.093Z,2.20
2022-11-19T04:43:38.749Z,1.45
2022-11-19T04:46:06.754Z,2.15
2022-11-19T04:48:34.444Z,2.10
2022-11-19T04:51:02.100Z,1.98
2022-11-19T04:53:31.200Z,1.52
2022-11-19T04:55:58.952Z,1.70
2022-11-19T04:58:26.711Z,1.85
2022-11-19T05:00:54.480Z,1.67
2022-11-19T05:03:22.205Z,1.77
2022-11-19T05:05:49.892Z,2.17
2022-11-19T05:08:17.719Z,1.80
2022-11-19T05:10:46.747Z,1.42
2022-11-19T05:13:14.421Z,1.55
2022-11-19T05:15:42.125Z,2.10
2022-11-19T05:18:09.827Z,1.77
2022-11-19T05:20:37.522Z,1.65
2022-11-19T05:23:05.281Z,1.90
2022-11-19T05:25:33.039Z,2.20
2022-11-19T05:28:02.086Z,2.15
2022-11-19T05:30:29.800Z,1.98
2022-11-19T05:32:57.694Z,2.38
2022-11-19T05:35:25.418Z,2.25
2022-11-19T05:37:53.130Z,2.10
2022-11-19T05:40:20.882Z,2.00
2022-11-19T05:42:48.530Z,2.55
2022-11-19T05:45:17.605Z,2.30
2022-11-19T05:47:48.574Z,2.15
2022-11-19T05:50:16.697Z,2.22
2022-11-19T05:52:44.449Z,1.95
2022-11-19T05:55:12.174Z,3.15
2022-11-19T05:57:39.874Z,2.08
2022-11-19T06:00:08.822Z,2.15
2022-11-19T06:02:37.958Z,2.10
2022-11-19T06:05:06.603Z,2.75
2022-11-19T06:07:34.423Z,1.95
2022-11-19T06:10:02.225Z,2.28
2022-11-19T06:12:29.908Z,1.90
2022-11-19T06:14:57.666Z,1.92
2022-11-19T06:17:25.280Z,2.20
2022-11-19T06:19:54.269Z,1.83
2022-11-19T06:22:22.003Z,1.70
2022-11-19T06:24:49.736Z,1.63
2022-11-19T06:27:17.492Z,1.30
2022-11-19T06:29:45.301Z,1.50
2022-11-19T06:32:12.993Z,1.50
2022-11-19T06:34:40.699Z,1.20
2022-11-19T06:37:09.776Z,1.45
2022-11-19T06:39:37.493Z,1.65
2022-11-19T06:42:19.163Z,1.40
2022-11-19T06:44:46.870Z,1.63
2022-11-19T06:47:14.530Z,1.67
2022-11-19T06:49:42.233Z,1.60
2022-11-19T06:52:11.301Z,1.30
2022-11-19T06:54:42.896Z,1.50
2022-11-19T06:57:10.924Z,1.52
2022-11-19T06:59:39.212Z,1.55
2022-11-19T07:02:07.290Z,1.92
2022-11-19T07:04:35.070Z,1.85
2022-11-19T07:07:02.846Z,2.80
2022-11-19T07:09:32.079Z,2.85
2022-11-19T07:11:59.899Z,2.70
2022-11-19T07:14:27.599Z,2.42
2022-11-19T07:16:57.197Z,3.25
2022-11-19T07:19:24.903Z,2.30
2022-11-19T07:21:52.605Z,1.90
2022-11-19T07:24:20.643Z,2.60
2022-11-19T07:26:49.671Z,2.30
2022-11-19T07:29:18.297Z,2.17
2022-11-19T07:31:49.473Z,2.10
2022-11-19T07:34:19.339Z,2.05
2022-11-19T07:36:47.387Z,1.88
2022-11-19T07:39:15.162Z,1.83
2022-11-19T07:42:00.910Z,1.67
2022-11-19T07:44:29.990Z,2.42
2022-11-19T07:46:57.728Z,1.45
2022-11-19T07:49:26.105Z,2.50
2022-11-19T07:51:53.851Z,1.73
2022-11-19T07:54:21.637Z,1.40
2022-11-19T07:56:49.605Z,1.65
2022-11-19T07:59:18.007Z,1.70
2022-11-19T08:01:47.440Z,1.40
2022-11-19T08:04:15.334Z,1.50
2022-11-19T08:06:43.024Z,1.38
2022-11-19T08:09:10.739Z,2.00
2022-11-19T08:11:38.437Z,1.80
2022-11-19T08:14:06.194Z,1.60
2022-11-19T08:16:52.342Z,1.40
2022-11-19T08:19:21.786Z,1.48
2022-11-19T08:21:49.857Z,1.80
2022-11-19T08:24:20.884Z,1.52
2022-11-19T08:26:49.755Z,1.80
2022-11-19T08:29:20.031Z,1.50
2022-11-19T08:31:48.924Z,1.83
2022-11-19T08:34:17.680Z,1.70
2022-11-19T08:36:47.092Z,1.25
2022-11-19T08:39:14.745Z,1.58
2022-11-19T08:41:59.945Z,1.73
2022-11-19T08:44:27.741Z,2.00
2022-11-19T08:46:55.573Z,1.30
2022-11-19T08:49:23.300Z,1.38
2022-11-19T08:51:53.225Z,1.42
2022-11-19T08:54:21.361Z,1.30
2022-11-19T08:56:49.412Z,1.88
2022-11-19T08:59:17.697Z,2.00
2022-11-19T09:01:45.638Z,1.20
2022-11-19T09:04:13.389Z,1.48
2022-11-19T09:06:41.147Z,1.65
2022-11-19T09:09:10.174Z,1.60
2022-11-19T09:11:42.465Z,1.50
2022-11-19T09:14:10.769Z,0.90
2022-11-19T09:16:38.626Z,1.60
2022-11-19T09:19:06.316Z,1.30
2022-11-19T09:21:34.367Z,1.35
2022-11-19T09:24:02.263Z,1.30
2022-11-19T09:26:31.398Z,1.30
2022-11-19T09:28:59.118Z,1.92
2022-11-19T09:31:26.896Z,1.10
2022-11-19T09:33:55.493Z,0.80
2022-11-19T09:36:23.405Z,1.20
2022-11-19T09:38:51.056Z,0.95
2022-11-19T09:41:40.657Z,1.20
2022-11-19T09:44:20.513Z,0.90
2022-11-19T09:46:55.720Z,0.98
2022-11-19T09:49:29.940Z,1.23
2022-11-19T09:52:04.741Z,1.33
2022-11-19T09:54:33.073Z,1.27
2022-11-19T09:57:06.709Z,1.02
2022-11-19T09:59:39.128Z,1.20
2022-11-19T10:02:17.681Z,1.38
2022-11-19T10:04:46.589Z,1.25
2022-11-19T10:07:23.286Z,0.90
2022-11-19T10:10:00.893Z,1.30
2022-11-19T10:12:54.024Z,1.48
2022-11-19T10:15:28.658Z,1.60
2022-11-19T10:18:08.300Z,1.40
2022-11-19T10:20:52.248Z,1.13
2022-11-19T10:23:24.303Z,1.63
2022-11-19T10:25:57.608Z,1.90
2022-11-19T10:28:30.258Z,1.52
2022-11-19T10:31:08.053Z,1.65
2022-11-19T10:33:40.372Z,1.60
2022-11-19T10:36:12.201Z,1.77
2022-11-19T10:38:56.116Z,2.00
2022-11-19T10:41:34.183Z,1.35
2022-11-19T10:44:40.491Z,1.42
2022-11-19T10:47:14.595Z,1.58
2022-11-19T10:49:43.956Z,1.50
2022-11-19T10:52:19.115Z,1.65
2022-11-19T10:54:48.582Z,1.40
2022-11-19T10:57:20.183Z,1.58
2022-11-19T10:59:52.361Z,1.30
2022-11-19T11:02:28.295Z,1.40
2022-11-19T11:05:10.098Z,1.65
2022-11-19T11:07:59.331Z,1.75
2022-11-19T11:10:34.841Z,2.00
2022-11-19T11:13:48.831Z,1.50
2022-11-19T11:16:20.840Z,2.75
2022-11-19T11:18:49.889Z,1.35
2022-11-19T11:21:30.770Z,1.33
2022-11-19T11:23:59.128Z,1.27
2022-11-19T11:26:29.360Z,1.45
2022-11-19T11:29:01.356Z,1.17
2022-11-19T11:31:36.364Z,1.10
2022-11-19T11:34:05.821Z,0.88
2022-11-19T11:36:36.865Z,1.50
2022-11-19T11:39:06.560Z,1.35
2022-11-19T11:44:30.085Z,1.30
2022-11-19T11:47:02.809Z,1.20
2022-11-19T11:49:34.996Z,1.52
2022-11-19T11:52:07.264Z,1.48
2022-11-19T11:54:35.399Z,1.17
2022-11-19T11:57:15.808Z,1.33
2022-11-19T11:59:43.682Z,1.27
2022-11-19T12:02:22.180Z,1.08
2022-11-19T12:04:52.247Z,1.17
2022-11-19T12:07:34.069Z,1.33
2022-11-19T12:10:15.084Z,1.40
2022-11-19T12:12:50.326Z,1.10
2022-11-19T12:15:23.278Z,1.20
2022-11-19T12:18:05.778Z,1.30
2022-11-19T12:20:40.444Z,1.20
2022-11-19T12:23:26.452Z,2.00
2022-11-19T12:26:12.471Z,1.60
2022-11-19T12:28:53.409Z,1.70
2022-11-19T12:31:38.799Z,1.60
2022-11-19T12:34:31.534Z,1.50
2022-11-19T12:37:08.461Z,1.25
2022-11-19T12:39:46.417Z,1.10
2022-11-19T12:42:44.599Z,1.83
2022-11-19T12:45:21.951Z,1.40
2022-11-19T12:48:17.617Z,1.48
2022-11-19T12:50:54.170Z,2.00
2022-11-19T12:54:06.929Z,1.15
2022-11-19T12:56:46.608Z,1.30
2022-11-19T12:59:32.272Z,1.70
2022-11-19T13:02:02.453Z,1.38
2022-11-19T13:04:40.915Z,1.50
2022-11-19T13:07:15.548Z,1.08
2022-11-19T13:09:48.344Z,1.60
2022-11-19T13:12:19.387Z,1.38
2022-11-19T13:14:54.866Z,1.15
2022-11-19T13:17:26.581Z,1.70
2022-11-19T13:19:58.918Z,1.42
2022-11-19T13:22:34.385Z,1.33
2022-11-19T13:25:06.402Z,1.48
2022-11-19T13:27:34.180Z,1.65
2022-11-19T13:30:05.181Z,1.90
2022-11-19T13:32:40.148Z,1.52
2022-11-19T13:35:17.490Z,1.90
2022-11-19T13:37:58.407Z,1.48
2022-11-19T13:40:32.342Z,1.60
2022-11-19T13:43:31.924Z,1.75
2022-11-19T13:46:20.824Z,1.35
2022-11-19T13:48:55.933Z,1.83
2022-11-19T13:51:30.356Z,1.70
2022-11-19T13:54:03.568Z,1.70
2022-11-19T13:56:46.965Z,1.70
2022-11-19T13:59:28.680Z,1.60
2022-11-19T14:02:06.654Z,2.00
2022-11-19T14:04:53.288Z,2.17
2022-11-19T14:07:48.365Z,1.65
2022-11-19T14:10:25.592Z,2.90
2022-11-19T14:13:23.007Z,2.70
2022-11-19T14:16:19.671Z,2.78
2022-11-19T14:19:07.921Z,2.67
2022-11-19T14:22:07.142Z,3.05
2022-11-19T14:25:12.181Z,2.40
2022-11-19T14:27:41.640Z,2.40
2022-11-19T14:30:12.418Z,2.63
2022-11-19T14:32:46.762Z,2.90
2022-11-19T14:35:42.289Z,2.40
2022-11-19T14:38:38.995Z,3.17
2022-11-19T14:41:30.712Z,3.05
2022-11-19T14:44:11.809Z,4.57
2022-11-19T14:46:45.800Z,2.00
2022-11-19T14:49:30.346Z,2.70
2022-11-19T14:51:58.820Z,2.58
2022-11-19T14:54:32.485Z,1.88
2022-11-19T14:57:03.872Z,2.25
2022-11-19T14:59:36.999Z,2.20
2022-11-19T15:02:16.217Z,2.63
2022-11-19T15:04:53.164Z,2.90
2022-11-19T15:07:35.172Z,2.67
2022-11-19T15:10:25.578Z,3.00
2022-11-19T15:13:16.805Z,2.80
2022-11-19T15:15:47.239Z,2.58
2022-11-19T15:18:38.935Z,2.83
2022-11-19T15:21:33.644Z,2.95
2022-11-19T15:24:16.708Z,3.03
2022-11-19T15:26:56.154Z,2.88
2022-11-19T15:29:42.337Z,2.80
2022-11-19T15:32:25.831Z,2.80
2022-11-19T15:35:32.098Z,3.35
2022-11-19T15:38:08.597Z,2.80
2022-11-19T15:40:36.819Z,2.70
2022-11-19T15:43:13.964Z,3.55
2022-11-19T15:45:46.075Z,3.03
2022-11-19T15:48:20.282Z,3.17
2022-11-19T15:50:49.596Z,3.10
2022-11-19T15:53:19.353Z,3.20
2022-11-19T15:55:55.237Z,2.90
2022-11-19T15:58:27.533Z,3.10
2022-11-19T16:00:56.353Z,3.47
2022-11-19T16:03:25.827Z,3.78
2022-11-19T16:06:03.116Z,3.17
2022-11-19T16:08:31.679Z,3.20
2022-11-19T16:11:20.182Z,2.58
2022-11-19T16:14:08.411Z,2.85
2022-11-19T16:16:53.866Z,3.20
2022-11-19T16:19:23.507Z,5.88
2022-11-19T16:21:55.167Z,7.03
2022-11-19T16:24:44.225Z,8.32
2022-11-19T16:27:19.373Z,6.63
2022-11-19T16:29:47.459Z,7.60
2022-11-19T16:32:18.466Z,6.47
2022-11-19T16:34:47.924Z,7.40
2022-11-19T16:37:17.416Z,7.70
2022-11-19T16:39:51.774Z,7.90
2022-11-19T16:42:23.018Z,7.93
2022-11-19T16:44:54.397Z,8.05
2022-11-19T16:47:27.077Z,8.30
2022-11-19T16:50:00.670Z,8.60
2022-11-19T16:52:43.186Z,8.20
2022-11-19T16:55:49.588Z,8.40
2022-11-19T16:58:20.469Z,7.95
2022-11-19T17:00:51.122Z,7.63
2022-11-19T17:03:30.618Z,7.88
2022-11-19T17:06:00.526Z,6.85
2022-11-19T17:08:31.053Z,7.05
2022-11-19T17:11:35.674Z,7.43
2022-11-19T17:14:07.108Z,7.85
2022-11-19T17:16:36.123Z,8.63
2022-11-19T17:19:16.182Z,8.20
2022-11-19T17:21:57.377Z,7.43
2022-11-19T17:24:28.230Z,7.20
2022-11-19T17:26:56.430Z,7.50
2022-11-19T17:29:25.349Z,7.93
2022-11-19T17:31:55.750Z,7.88
2022-11-19T17:34:30.472Z,8.43
2022-11-19T17:36:59.690Z,7.20
2022-11-19T17:39:27.467Z,7.00
2022-11-19T17:42:14.053Z,7.13
2022-11-19T17:44:42.574Z,7.93
2022-11-19T17:47:24.233Z,7.05
2022-11-19T17:49:53.212Z,7.63
2022-11-19T17:52:24.595Z,8.38
2022-11-19T17:54:53.926Z,7.75
2022-11-19T17:57:21.714Z,9.07
2022-11-19T17:59:49.396Z,7.55
2022-11-19T18:02:18.493Z,9.05
2022-11-19T18:04:47.567Z,8.60
2022-11-19T18:07:15.949Z,9.50
2022-11-19T18:09:45.067Z,8.68
2022-11-19T18:12:15.075Z,9.20
2022-11-19T18:14:43.360Z,9.18
2022-11-19T18:17:12.547Z,8.68
2022-11-19T18:19:40.260Z,8.38
2022-11-19T18:22:14.371Z,7.95
2022-11-19T18:24:42.065Z,8.02
2022-11-19T18:27:11.083Z,9.70
2022-11-19T18:29:39.203Z,8.13
2022-11-19T18:32:07.333Z,10.93
2022-11-19T18:34:35.047Z,9.70
2022-11-19T18:37:02.700Z,10.90
2022-11-19T18:39:30.359Z,10.15
2022-11-19T18:41:58.049Z,10.32
2022-11-19T18:44:36.125Z,10.50
2022-11-19T18:47:06.194Z,9.10
2022-11-19T18:49:34.992Z,7.70
2022-11-19T18:52:03.188Z,8.10
2022-11-19T18:54:30.959Z,6.55
2022-11-19T18:56:59.131Z,6.60
2022-11-19T18:59:28.768Z,5.43
2022-11-19T19:01:56.660Z,6.63
2022-11-19T19:04:24.521Z,5.40
2022-11-19T19:06:52.508Z,6.80
2022-11-19T19:09:21.159Z,5.80
2022-11-19T19:12:12.923Z,5.78
2022-11-19T19:14:42.681Z,5.20
2022-11-19T19:17:10.729Z,6.10
2022-11-19T19:19:38.460Z,5.07
2022-11-19T19:22:06.686Z,5.00
2022-11-19T19:24:34.742Z,5.40
2022-11-19T19:27:03.103Z,5.68
2022-11-19T19:29:30.781Z,4.70
2022-11-19T19:31:59.847Z,3.83
2022-11-19T19:34:29.242Z,4.85
2022-11-19T19:36:57.284Z,4.45
2022-11-19T19:39:25.317Z,4.82
2022-11-19T19:41:53.351Z,5.00
2022-11-19T19:44:21.109Z,5.28
2022-11-19T19:46:49.411Z,4.72
2022-11-19T19:49:18.459Z,4.72
2022-11-19T19:51:46.232Z,4.85
2022-11-19T19:54:14.039Z,5.60
2022-11-19T19:56:41.891Z,5.40
2022-11-19T19:59:11.163Z,4.80
2022-11-19T20:01:38.970Z,5.50
2022-11-19T20:04:08.627Z,6.30
2022-11-19T20:06:40.995Z,5.93
2022-11-19T20:09:09.586Z,5.70
2022-11-19T20:11:38.136Z,6.13
2022-11-19T20:14:06.272Z,6.03
2022-11-19T20:16:35.068Z,5.50
2022-11-19T20:19:03.381Z,5.38
2022-11-19T20:21:34.118Z,5.15
2022-11-19T20:24:08.711Z,5.30
2022-11-19T20:26:40.833Z,5.63
2022-11-19T20:29:08.937Z,4.90
2022-11-19T20:31:36.699Z,5.57
2022-11-19T20:34:05.899Z,5.55
2022-11-19T20:36:35.137Z,6.43
2022-11-19T20:39:04.976Z,5.65
2022-11-19T20:41:50.497Z,5.28
2022-11-19T20:44:23.306Z,6.07
2022-11-19T20:46:53.244Z,5.90
2022-11-19T20:49:24.514Z,5.68
2022-11-19T20:51:52.883Z,5.95
2022-11-19T20:54:22.665Z,5.97
2022-11-19T20:56:51.959Z,5.47
2022-11-19T20:59:20.778Z,6.13
2022-11-19T21:01:50.411Z,7.20
2022-11-19T21:04:18.600Z,6.60
2022-11-19T21:06:46.710Z,6.90
2022-11-19T21:09:15.661Z,6.70
2022-11-19T21:11:44.777Z,6.20
2022-11-19T21:14:12.600Z,6.05
2022-11-19T21:16:40.879Z,6.80
2022-11-19T21:19:08.673Z,6.78
2022-11-19T21:21:36.365Z,6.93
2022-11-19T21:24:04.424Z,6.60
2022-11-19T21:26:32.161Z,9.27
2022-11-19T21:29:01.587Z,9.75
2022-11-19T21:31:39.316Z,10.77
2022-11-19T21:34:08.835Z,9.10
2022-11-19T21:36:37.252Z,10.15
2022-11-19T21:39:05.808Z,10.63
2022-11-19T21:41:35.904Z,9.98
2022-11-19T21:44:05.913Z,10.82
2022-11-19T21:46:34.104Z,9.50
2022-11-19T21:49:02.108Z,9.48
2022-11-19T21:51:30.030Z,9.85
2022-11-19T21:53:58.644Z,9.18
2022-11-19T21:56:27.340Z,10.77
2022-11-19T21:58:55.194Z,9.30
2022-11-19T22:01:24.405Z,9.48
2022-11-19T22:03:52.108Z,9.93
2022-11-19T22:06:19.784Z,8.80
2022-11-19T22:08:47.495Z,9.30
2022-11-19T22:11:30.866Z,8.63
2022-11-19T22:14:00.500Z,9.93
2022-11-19T22:16:30.230Z,10.73
2022-11-19T22:18:57.923Z,10.90
2022-11-19T22:21:26.377Z,10.65
2022-11-19T22:23:54.134Z,10.40
2022-11-19T22:26:22.243Z,9.75
2022-11-19T22:28:50.333Z,11.35
2022-11-19T22:31:18.122Z,9.20
2022-11-19T22:33:49.674Z,9.90
2022-11-19T22:36:17.343Z,9.32
2022-11-19T22:38:45.503Z,7.10
2022-11-19T22:41:15.075Z,6.53
2022-11-19T22:43:43.254Z,5.35
2022-11-19T22:46:13.612Z,6.32
2022-11-19T22:48:41.885Z,5.90
2022-11-19T22:51:16.579Z,6.35
2022-11-19T22:53:44.579Z,9.18
2022-11-19T22:56:14.037Z,9.25
2022-11-19T22:58:42.310Z,8.43
2022-11-19T23:01:16.721Z,9.52
2022-11-19T23:03:44.754Z,9.20
2022-11-19T23:06:14.265Z,5.18
2022-11-19T23:08:42.036Z,5.80
2022-11-19T23:11:10.200Z,5.10
2022-11-19T23:13:39.599Z,5.25
2022-11-19T23:16:09.591Z,4.32
2022-11-19T23:18:39.003Z,4.43
2022-11-19T23:21:09.193Z,4.15
2022-11-19T23:23:40.778Z,4.68
2022-11-19T23:26:10.708Z,4.00
2022-11-19T23:28:39.296Z,3.85
2022-11-19T23:31:08.350Z,4.35
2022-11-19T23:33:36.435Z,3.92
2022-11-19T23:36:05.528Z,3.90
2022-11-19T23:38:33.373Z,4.15
2022-11-19T23:41:03.526Z,3.42
2022-11-19T23:43:32.349Z,3.95
2022-11-19T23:46:05.021Z,4.00
2022-11-19T23:48:33.393Z,4.45
2022-11-19T23:51:02.963Z,4.00
2022-11-19T23:53:30.867Z,4.50
2022-11-19T23:55:59.077Z,3.90
2022-11-19T23:58:28.954Z,4.32
